Estill, Kentucky
Current Conditions -  °F | °C
As of 6:35 AM on Friday 19 Dec 2014 (Local Time) from KPBX Reporting Station
Overcast Overcast  
Wind Chill: 23°   Ceiling: 1300
Heat Index: 28°   Visibility: 10mi
Dew Point: 25°   Wind: 5mph
Humidity: 86%   Direction: 360°N
Pressure: 30.2"   Gusts: NA
Location:  37.4371°N, 82.8083°W
Report Text: KPBX 191135Z AUTO 36004KT 10SM OVC013 M02/M04 A3020 RMK AO2 T10201041
Loading
Personal Weather Stations






























Interactive Weather Map New forecast layout! Learn more

10-Day Weather Forecast

Advertisements
Track Severe Weather on mobile